Aplicació Alertes

Dades de l'estació automàtica la Tosa d'Alp 2500

?
?
Resum diari 22:30 TU
Dades diàries de l'estació meteorològica
Temperatura mitjana -10.5 °C
Temperatura màxima -8.4 °C 16:24 TU
Temperatura mínima -13.5 °C 3:14 TU
Humitat relativa mitjana 88%
Ratxa màxima del vent (10 m) 98.6 km/h - 346º 18:38 TU
Irradiació solar global 11.9 MJ/m2

El tram horari està expressat en Temps Universal (TU). Cal sumar una hora en horari d'hivern i dues en horari d'estiu per passar a l'hora oficial.

la Tosa d'Alp 2500

Metadades estació meteorol´gica
Municipi Alp
Comarca Cerdanya
Altitud 2478 m
Data alta 04.09.2014
Estat actual Operativa
Dades de període
Període
TU
TM
°C
TX
°C
TN
°C
HRM
%
VVM (10 m)
km/h
DVM (10 m)
graus
VVX (10 m)
km/h
RS
W/m2
00:00 - 00:30 -12.6 -12.6 -12.7 90 69.5 348 87.5 0
00:30 - 01:00 -12.6 -12.6 -12.7 90 60.5 349 76.7 0
01:00 - 01:30 -12.7 -12.5 -12.8 88 59.8 348 77.8 0
01:30 - 02:00 -12.7 -12.5 -12.8 88 61.9 347 79.2 0
02:00 - 02:30 -12.8 -12.6 -13.2 87 64.4 348 84.2 0
02:30 - 03:00 -13.1 -12.9 -13.3 88 65.2 349 88.2 0
03:00 - 03:30 -13.4 -13.2 -13.5 89 61.2 353 77.0 0
03:30 - 04:00 -13.2 -13.0 -13.3 87 66.2 352 92.5 0
04:00 - 04:30 -13.2 -13.0 -13.4 90 66.6 353 87.1 0
04:30 - 05:00 -12.9 -12.7 -13.2 88 67.3 350 87.5 0
05:00 - 05:30 -13.1 -12.9 -13.3 89 63.0 351 83.9 0
05:30 - 06:00 -13.0 -12.9 -13.2 90 57.2 348 72.4 0
06:00 - 06:30 -13.1 -12.7 -13.4 91 55.1 348 65.9 0
06:30 - 07:00 -12.3 -11.5 -12.8 87 65.2 346 83.2 0
07:00 - 07:30 -12.3 -11.5 -12.7 87 51.8 348 70.6 29
07:30 - 08:00 -11.9 -11.4 -12.4 85 49.7 351 73.1 85
08:00 - 08:30 -11.3 -10.3 -11.9 80 56.2 351 79.2 208
08:30 - 09:00 -10.4 -9.8 -10.9 75 68.0 345 83.9 293
09:00 - 09:30 -10.0 -9.7 -10.3 74 58.0 350 80.6 410
09:30 - 10:00 -9.6 -9.4 -10.0 74 54.4 350 83.2 504
10:00 - 10:30 -9.6 -9.4 -9.8 77 47.2 351 65.5 612
10:30 - 11:00 -9.3 -9.0 -9.4 81 54.7 350 74.5 626
11:00 - 11:30 -9.0 -8.8 -9.1 83 49.7 350 66.2 628
11:30 - 12:00 -8.8 -8.7 -8.9 84 55.4 351 74.9 622
12:00 - 12:30 -8.9 -8.8 -9.0 85 63.7 347 78.8 586
12:30 - 13:00 -8.9 -8.7 -9.0 85 69.8 346 91.1 548
13:00 - 13:30 -8.6 -8.5 -8.8 83 61.9 348 87.5 459
13:30 - 14:00 -8.7 -8.5 -8.9 85 52.9 349 70.2 386
14:00 - 14:30 -9.0 -8.7 -9.2 91 50.4 349 69.8 299
14:30 - 15:00 -9.0 -8.9 -9.1 90 42.8 348 56.5 166
15:00 - 15:30 -9.0 -8.8 -9.2 90 37.8 349 52.2 119
15:30 - 16:00 -9.0 -8.7 -9.2 91 39.6 348 51.1 40
16:00 - 16:30 -8.9 -8.4 -9.4 89 44.3 351 69.1 9
16:30 - 17:00 -9.3 -8.9 -9.6 94 46.1 350 64.4 0
17:00 - 17:30 -9.4 -8.4 -9.6 93 51.1 353 72.0 0
17:30 - 18:00 -9.6 -9.5 -9.6 95 56.9 351 70.6 0
18:00 - 18:30 -9.4 -9.3 -9.6 94 77.8 348 92.9 0
18:30 - 19:00 -9.3 -9.2 -9.4 93 81.7 348 98.6 0
19:00 - 19:30 -9.2 -9.2 -9.3 94 72.4 348 90.7 0
19:30 - 20:00 -9.2 -9.2 -9.3 94 61.2 350 79.9 0
20:00 - 20:30 -9.3 -9.2 -9.3 94 47.9 349 64.4 0
20:30 - 21:00 -9.2 -9.2 -9.3 94 37.8 348 68.4 0
21:00 - 21:30 -9.2 -9.1 -9.4 94 35.3 350 57.6 0
21:30 - 22:00 -9.0 -8.9 -9.1 94 43.9 351 65.2 0
22:00 - 22:30 -9.0 -8.8 -9.1 94 40.0 349 62.6 0
22:30 - 23:00 -8.8 -8.7 -9.0 94 36.0 349 54.4 0

Les dades en taronja només han passat un control de qualitat automàtic. Resta pendent la seva validació definitiva.